createdAt,value
2023-04-12T00:02:15.797Z,99944.03
2023-04-12T00:04:42.172Z,99959.09
2023-04-12T00:07:08.643Z,99961.03
2023-04-12T00:09:34.880Z,99938.03
2023-04-12T00:12:01.083Z,99954.63
2023-04-12T00:14:27.306Z,100005.25
2023-04-12T00:16:53.517Z,99997.09
2023-04-12T00:19:19.735Z,100020.25
2023-04-12T00:21:45.957Z,100050.19
2023-04-12T00:24:12.485Z,100070.03
2023-04-12T00:26:38.677Z,100071.03
2023-04-12T00:29:04.891Z,100068.69
2023-04-12T00:31:31.145Z,100065.69
2023-04-12T00:33:57.532Z,100048.03
2023-04-12T00:36:23.934Z,100044.44
2023-04-12T00:38:50.158Z,100024.75
2023-04-12T00:41:17.041Z,100027.16
2023-04-12T00:43:43.261Z,100017.47
2023-04-12T00:46:09.572Z,100007.41
2023-04-12T00:48:36.432Z,100001.44
2023-04-12T00:51:02.641Z,99983.31
2023-04-12T00:53:28.858Z,99970.19
2023-04-12T00:55:55.070Z,99955.50
2023-04-12T00:58:22.454Z,99946.19
2023-04-12T01:00:48.684Z,99931.69
2023-04-12T01:03:15.145Z,99923.19
2023-04-12T01:05:43.518Z,99913.34
2023-04-12T01:08:09.681Z,99907.16
2023-04-12T01:10:41.634Z,99897.19
2023-04-12T01:13:17.900Z,99890.75
2023-04-12T01:15:50.899Z,99880.53
2023-04-12T01:18:19.217Z,99882.31
2023-04-12T01:20:50.555Z,99872.59
2023-04-12T01:23:28.284Z,99865.50
2023-04-12T01:26:09.959Z,99854.03
2023-04-12T01:28:37.912Z,99847.78
2023-04-12T01:31:04.216Z,99833.28
2023-04-12T01:33:30.426Z,99830.75
2023-04-12T01:35:57.956Z,99819.81
2023-04-12T01:38:24.201Z,99810.63
2023-04-12T01:40:50.423Z,99800.53
2023-04-12T01:43:16.638Z,99793.13
2023-04-12T01:45:42.921Z,99791.41
2023-04-12T01:48:09.853Z,99775.63
2023-04-12T01:50:39.048Z,99763.59
2023-04-12T01:53:10.842Z,99755.47
2023-04-12T01:55:37.385Z,99737.38
2023-04-12T01:58:03.589Z,99732.41
2023-04-12T02:00:29.808Z,99733.81
2023-04-12T02:02:56.076Z,99725.94
2023-04-12T02:05:22.336Z,99715.41
2023-04-12T02:07:48.579Z,99713.69
2023-04-12T02:10:14.872Z,99701.59
2023-04-12T02:12:41.398Z,99685.88
2023-04-12T02:15:07.890Z,99673.91
2023-04-12T02:17:34.412Z,99673.78
2023-04-12T02:20:00.646Z,99668.00
2023-04-12T02:22:26.856Z,99648.22
2023-04-12T02:24:53.068Z,99635.91
2023-04-12T02:27:19.269Z,99630.75
2023-04-12T02:29:45.474Z,99608.78
2023-04-12T02:32:11.682Z,99601.69
2023-04-12T02:34:37.900Z,99596.94
2023-04-12T02:37:04.114Z,99591.78
2023-04-12T02:39:30.352Z,99581.91
2023-04-12T02:41:56.552Z,99574.03
2023-04-12T02:44:22.766Z,99560.22
2023-04-12T02:46:48.971Z,99551.09
2023-04-12T02:49:15.202Z,99540.44
2023-04-12T02:51:41.782Z,99526.41
2023-04-12T02:54:08.010Z,99519.38
2023-04-12T02:56:37.379Z,99511.94
2023-04-12T02:59:03.603Z,99506.22
2023-04-12T03:01:29.886Z,99484.66
2023-04-12T03:03:56.404Z,99474.84
2023-04-12T03:06:22.882Z,99460.41
2023-04-12T03:08:49.087Z,99461.44
2023-04-12T03:11:15.298Z,99463.97
2023-04-12T03:13:41.520Z,99446.16
2023-04-12T03:16:20.934Z,99447.94
2023-04-12T03:18:47.173Z,99448.38
2023-04-12T03:21:13.377Z,99445.38
2023-04-12T03:23:39.603Z,99447.38
2023-04-12T03:26:05.964Z,99446.16
2023-04-12T03:28:32.168Z,99443.22
2023-04-12T03:30:58.396Z,99440.03
2023-04-12T03:33:24.598Z,99430.84
2023-04-12T03:35:50.831Z,99430.91
2023-04-12T03:38:17.104Z,99419.75
2023-04-12T03:40:43.319Z,99412.34
2023-04-12T03:43:09.540Z,99408.78
2023-04-12T03:45:35.729Z,99409.66
2023-04-12T03:48:01.961Z,99402.13
2023-04-12T03:50:28.170Z,99403.88
2023-04-12T03:52:54.500Z,99398.63
2023-04-12T03:55:20.695Z,99390.00
2023-04-12T03:57:46.907Z,99382.25
2023-04-12T04:00:14.964Z,99380.03
2023-04-12T04:02:41.274Z,99382.72
2023-04-12T04:05:07.691Z,99376.38
2023-04-12T04:07:33.913Z,99373.44
2023-04-12T04:10:00.186Z,99370.19
2023-04-12T04:12:26.433Z,99374.22
2023-04-12T04:14:52.626Z,99370.50
2023-04-12T04:17:18.911Z,99370.16
2023-04-12T04:19:45.161Z,99367.50
2023-04-12T04:22:11.369Z,99357.09
2023-04-12T04:24:37.570Z,99357.66
2023-04-12T04:27:03.816Z,99364.16
2023-04-12T04:29:30.262Z,99365.84
2023-04-12T04:31:56.501Z,99358.09
2023-04-12T04:34:22.744Z,99353.00
2023-04-12T04:36:48.951Z,99355.94
2023-04-12T04:39:15.168Z,99346.19
2023-04-12T04:41:41.729Z,99354.78
2023-04-12T04:44:08.187Z,99354.44
2023-04-12T04:46:34.386Z,99352.91
2023-04-12T04:49:00.831Z,99353.22
2023-04-12T04:51:27.046Z,99358.28
2023-04-12T04:53:53.272Z,99367.66
2023-04-12T04:56:19.471Z,99380.44
2023-04-12T04:58:45.670Z,99393.63
2023-04-12T05:01:11.904Z,99420.63
2023-04-12T05:03:38.225Z,99461.13
2023-04-12T05:06:04.506Z,99485.69
2023-04-12T05:08:30.720Z,99530.38
2023-04-12T05:10:56.946Z,99553.63
2023-04-12T05:13:23.168Z,99536.56
2023-04-12T05:15:49.589Z,99468.72
2023-04-12T05:18:15.813Z,99338.59
2023-04-12T05:20:42.018Z,99190.13
2023-04-12T05:23:08.231Z,99065.41
2023-04-12T05:25:34.439Z,98919.56
2023-04-12T05:28:00.642Z,98890.97
2023-04-12T05:30:26.894Z,99007.84
2023-04-12T05:32:53.123Z,99141.19
2023-04-12T05:35:19.481Z,99138.03
2023-04-12T05:37:45.807Z,99144.28
2023-04-12T05:40:12.159Z,99159.06
2023-04-12T05:42:38.403Z,99187.72
2023-04-12T05:45:05.003Z,99179.09
2023-04-12T05:47:31.265Z,99180.63
2023-04-12T05:49:57.586Z,99151.28
2023-04-12T05:52:23.803Z,99176.84
2023-04-12T05:54:50.015Z,99266.00
2023-04-12T05:57:16.207Z,99388.09
2023-04-12T05:59:42.426Z,99429.63
2023-04-12T06:02:08.758Z,99480.94
2023-04-12T06:04:48.853Z,99458.47
2023-04-12T06:07:16.741Z,99383.38
2023-04-12T06:09:42.963Z,99337.03
2023-04-12T06:12:09.345Z,99238.97
2023-04-12T06:14:35.611Z,99175.25
2023-04-12T06:17:01.817Z,99067.13
2023-04-12T06:19:31.243Z,98934.28
2023-04-12T06:21:57.457Z,98924.69
2023-04-12T06:24:23.696Z,98866.53
2023-04-12T06:26:52.365Z,98750.13
2023-04-12T06:29:18.604Z,98749.63
2023-04-12T06:31:45.079Z,98852.44
2023-04-12T06:34:36.725Z,99000.72
2023-04-12T06:37:02.969Z,98913.19
2023-04-12T06:39:29.551Z,98782.16
2023-04-12T06:42:08.054Z,98753.41
2023-04-12T06:44:34.317Z,98724.69
2023-04-12T06:47:06.966Z,98718.69
2023-04-12T06:49:35.755Z,98612.13
2023-04-12T06:52:06.806Z,98731.28
2023-04-12T06:54:33.333Z,98587.69
2023-04-12T06:56:59.628Z,98826.47
2023-04-12T06:59:27.723Z,98798.09
2023-04-12T07:01:54.064Z,99055.06
2023-04-12T07:04:26.241Z,98905.59
2023-04-12T07:06:53.647Z,98761.03
2023-04-12T07:09:28.964Z,98643.09
2023-04-12T07:12:13.756Z,98757.88
2023-04-12T07:17:37.270Z,98772.41
2023-04-12T07:20:15.533Z,98694.53
2023-04-12T07:22:56.769Z,98589.47
2023-04-12T07:25:28.166Z,98477.16
2023-04-12T07:27:54.629Z,98500.88
2023-04-12T07:30:30.577Z,98717.84
2023-04-12T07:33:08.685Z,98753.94
2023-04-12T07:35:45.771Z,98772.25
2023-04-12T07:38:25.880Z,98718.78
2023-04-12T07:43:48.975Z,98591.00
2023-04-12T07:46:17.780Z,98615.91
2023-04-12T07:48:51.373Z,98762.88
2023-04-12T07:51:20.671Z,98872.63
2023-04-12T07:53:50.215Z,98790.22
2023-04-12T07:56:16.508Z,98762.09
2023-04-12T07:58:42.955Z,98702.47
2023-04-12T08:01:13.638Z,98624.75
2023-04-12T08:03:39.996Z,98610.75
2023-04-12T08:06:06.538Z,98458.38
2023-04-12T08:08:32.831Z,98502.56
2023-04-12T08:10:59.311Z,98351.44
2023-04-12T08:13:25.519Z,98377.47
2023-04-12T08:15:53.599Z,98510.88
2023-04-12T08:18:19.875Z,98620.75
2023-04-12T08:20:46.098Z,98105.63
2023-04-12T08:23:12.318Z,98106.16
2023-04-12T08:25:38.619Z,97936.00
2023-04-12T08:28:04.897Z,98102.41
2023-04-12T08:30:31.188Z,98070.09
2023-04-12T08:32:57.475Z,98355.38
2023-04-12T08:35:23.756Z,98230.72
2023-04-12T08:37:50.044Z,98006.28
2023-04-12T08:40:16.264Z,98090.63
2023-04-12T08:42:42.473Z,98095.00
2023-04-12T08:45:09.383Z,97993.91
2023-04-12T08:47:37.362Z,98111.53
2023-04-12T08:50:03.638Z,98155.47
2023-04-12T08:52:30.295Z,98222.97
2023-04-12T08:54:56.530Z,97854.06
2023-04-12T08:57:22.813Z,97763.66
2023-04-12T08:59:49.114Z,97888.34
2023-04-12T09:02:15.472Z,97617.31
2023-04-12T09:04:48.653Z,97566.91
2023-04-12T09:07:15.161Z,97618.44
2023-04-12T09:09:42.056Z,97562.06
2023-04-12T09:12:08.662Z,97584.41
2023-04-12T09:14:34.889Z,97783.16
2023-04-12T09:17:01.216Z,97957.66
2023-04-12T09:19:31.295Z,97812.59
2023-04-12T09:21:57.535Z,97922.75
2023-04-12T09:24:23.787Z,97814.97
2023-04-12T09:27:05.754Z,97671.16
2023-04-12T09:29:32.493Z,97894.06
2023-04-12T09:32:02.649Z,97796.28
2023-04-12T09:34:29.495Z,97928.31
2023-04-12T09:36:55.712Z,97853.31
2023-04-12T09:39:31.723Z,97754.00
2023-04-12T09:42:04.774Z,97865.03
2023-04-12T09:44:31.039Z,97910.25
2023-04-12T09:46:57.288Z,97749.50
2023-04-12T09:49:39.093Z,97654.34
2023-04-12T09:52:08.596Z,97438.41
2023-04-12T09:54:44.453Z,97943.16
2023-04-12T09:57:10.786Z,97621.50
2023-04-12T09:59:37.596Z,97371.66
2023-04-12T10:02:08.129Z,97468.22
2023-04-12T10:04:35.435Z,97488.88
2023-04-12T10:07:01.711Z,97557.72
2023-04-12T10:09:27.943Z,97563.59
2023-04-12T10:11:54.156Z,97653.03
2023-04-12T10:14:20.739Z,97370.78
2023-04-12T10:16:47.510Z,97312.47
2023-04-12T10:19:13.806Z,97242.03
2023-04-12T10:21:40.047Z,97497.84
2023-04-12T10:24:06.275Z,97148.88
2023-04-12T10:26:32.497Z,97374.78
2023-04-12T10:29:17.658Z,97572.13
2023-04-12T10:31:43.919Z,97602.97
2023-04-12T10:34:10.174Z,97509.25
2023-04-12T10:37:12.013Z,97627.16
2023-04-12T10:39:41.385Z,97635.66
2023-04-12T10:42:17.431Z,97545.34
2023-04-12T10:44:43.655Z,97691.22
2023-04-12T10:47:09.990Z,97755.81
2023-04-12T10:49:36.256Z,97660.22
2023-04-12T10:52:02.506Z,97728.72
2023-04-12T10:54:28.772Z,97833.06
2023-04-12T10:56:55.030Z,97662.06
2023-04-12T10:59:21.259Z,97483.56
2023-04-12T11:02:06.187Z,97645.56
2023-04-12T11:04:32.585Z,97613.16
2023-04-12T11:06:59.673Z,97623.91
2023-04-12T11:09:44.267Z,97596.88
2023-04-12T11:12:11.385Z,97601.75
2023-04-12T11:14:43.344Z,97433.31
2023-04-12T11:17:11.707Z,97559.91
2023-04-12T11:19:44.103Z,97470.53
2023-04-12T11:22:11.092Z,97510.22
2023-04-12T11:24:37.786Z,97095.06
2023-04-12T11:27:04.272Z,97033.25
2023-04-12T11:29:30.482Z,97226.81
2023-04-12T11:31:56.708Z,97224.03
2023-04-12T11:34:22.936Z,97077.34
2023-04-12T11:36:52.470Z,97040.16
2023-04-12T11:39:18.690Z,97201.53
2023-04-12T11:41:45.104Z,97367.31
2023-04-12T11:44:11.318Z,97464.06
2023-04-12T11:46:37.558Z,97334.56
2023-04-12T11:49:03.783Z,97386.94
2023-04-12T11:51:32.546Z,97449.88
2023-04-12T11:53:59.290Z,97298.28
2023-04-12T11:56:25.925Z,97373.94
2023-04-12T11:58:52.147Z,97309.00
2023-04-12T12:01:18.834Z,97440.91
2023-04-12T12:03:45.187Z,97404.09
2023-04-12T12:06:11.991Z,97361.69
2023-04-12T12:08:38.376Z,97268.84
2023-04-12T12:11:08.424Z,97247.72
2023-04-12T12:13:45.962Z,97212.09
2023-04-12T12:16:12.272Z,97325.00
2023-04-12T12:18:44.994Z,97408.31
2023-04-12T12:21:11.928Z,97420.06
2023-04-12T12:23:38.152Z,97491.16
2023-04-12T12:26:17.850Z,97474.88
2023-04-12T12:28:48.455Z,97512.78
2023-04-12T12:31:17.902Z,97517.94
2023-04-12T12:33:47.180Z,97540.06
2023-04-12T12:36:13.850Z,97501.00
2023-04-12T12:38:40.379Z,97465.13
2023-04-12T12:41:19.160Z,97418.44
2023-04-12T12:43:45.953Z,97416.28
2023-04-12T12:46:12.177Z,97457.50
2023-04-12T12:48:41.606Z,97517.69
2023-04-12T12:51:08.154Z,97558.78
2023-04-12T12:53:34.826Z,97499.75
2023-04-12T12:56:01.040Z,97401.94
2023-04-12T12:58:27.252Z,97486.00
2023-04-12T13:00:53.485Z,97485.91
2023-04-12T13:03:19.967Z,97542.56
2023-04-12T13:05:46.377Z,97474.41
2023-04-12T13:08:12.578Z,97535.69
2023-04-12T13:10:38.789Z,97460.38
2023-04-12T13:13:05.024Z,97518.19
2023-04-12T13:15:31.246Z,97692.09
2023-04-12T13:17:57.530Z,97675.75
2023-04-12T13:20:23.805Z,97698.59
2023-04-12T13:22:50.328Z,97829.00
2023-04-12T13:25:16.585Z,97999.75
2023-04-12T13:27:42.795Z,98046.88
2023-04-12T13:30:09.104Z,98358.34
2023-04-12T13:32:35.332Z,98353.00
2023-04-12T13:35:01.604Z,98532.25
2023-04-12T13:37:27.844Z,98499.06
2023-04-12T13:39:54.059Z,98469.28
2023-04-12T13:42:20.308Z,98509.16
2023-04-12T13:44:46.533Z,98664.59
2023-04-12T13:47:12.737Z,98600.50
2023-04-12T13:49:38.957Z,98651.63
2023-04-12T13:52:05.189Z,98722.03
2023-04-12T13:54:31.404Z,98588.09
2023-04-12T13:56:57.624Z,98614.56
2023-04-12T13:59:24.297Z,98653.34
2023-04-12T14:01:50.613Z,98792.28
2023-04-12T14:04:16.927Z,98748.88
2023-04-12T14:06:43.165Z,98713.06
2023-04-12T14:09:09.373Z,98685.31
2023-04-12T14:11:44.762Z,98665.13
2023-04-12T14:14:10.985Z,98746.78
2023-04-12T14:16:37.234Z,98825.91
2023-04-12T14:19:03.528Z,98820.75
2023-04-12T14:21:29.736Z,98811.75
2023-04-12T14:23:56.184Z,98659.41
2023-04-12T14:26:22.598Z,98710.81
2023-04-12T14:28:48.804Z,98708.78
2023-04-12T14:31:15.116Z,98745.31
2023-04-12T14:33:41.497Z,98682.66
2023-04-12T14:36:07.851Z,98894.72
2023-04-12T14:38:34.366Z,98974.53
2023-04-12T14:41:00.842Z,99052.88
2023-04-12T14:43:27.443Z,99124.84
2023-04-12T14:45:53.755Z,99210.72
2023-04-12T14:48:20.301Z,99325.50
2023-04-12T14:50:46.500Z,99334.94
2023-04-12T14:53:12.709Z,99302.34
2023-04-12T14:55:39.277Z,99240.38
2023-04-12T14:58:05.528Z,99188.84
2023-04-12T15:00:33.086Z,99209.13
2023-04-12T15:02:59.620Z,99255.47
2023-04-12T15:05:26.487Z,99296.72
2023-04-12T15:07:53.079Z,99378.22
2023-04-12T15:10:19.576Z,99383.16
2023-04-12T15:12:45.939Z,99420.47
2023-04-12T15:15:12.350Z,99475.06
2023-04-12T15:17:38.717Z,99486.56
2023-04-12T15:20:05.257Z,99493.38
2023-04-12T15:22:33.895Z,99549.25
2023-04-12T15:25:00.117Z,99558.59
2023-04-12T15:27:26.385Z,99548.44
2023-04-12T15:29:52.604Z,99562.00
2023-04-12T15:32:18.886Z,99554.72
2023-04-12T15:34:45.130Z,99539.34
2023-04-12T15:37:11.353Z,99529.22
2023-04-12T15:39:37.569Z,99500.75
2023-04-12T15:42:04.334Z,99487.75
2023-04-12T15:44:30.540Z,99479.16
2023-04-12T15:47:10.472Z,99469.03
2023-04-12T15:49:38.897Z,99448.41
2023-04-12T15:52:05.106Z,99448.69
2023-04-12T15:54:31.316Z,99420.31
2023-04-12T15:56:57.523Z,99403.66
2023-04-12T15:59:23.735Z,99382.28
2023-04-12T16:01:50.070Z,99370.59
2023-04-12T16:04:16.554Z,99357.28
2023-04-12T16:06:42.879Z,99336.19
2023-04-12T16:09:09.148Z,99308.09
2023-04-12T16:11:35.380Z,99306.28
2023-04-12T16:14:01.602Z,99283.84
2023-04-12T16:16:27.843Z,99271.84
2023-04-12T16:18:54.104Z,99255.50
2023-04-12T16:21:20.445Z,99234.13
2023-04-12T16:23:47.063Z,99218.53
2023-04-12T16:26:13.726Z,99213.31
2023-04-12T16:28:39.937Z,99189.84
2023-04-12T16:31:06.456Z,99179.91
2023-04-12T16:33:32.766Z,99167.44
2023-04-12T16:35:59.023Z,99157.03
2023-04-12T16:38:25.311Z,99155.75
2023-04-12T16:40:51.510Z,99147.22
2023-04-12T16:43:17.797Z,99155.03
2023-04-12T16:45:44.048Z,99144.31
2023-04-12T16:48:10.309Z,99140.44
2023-04-12T16:50:36.540Z,99127.91
2023-04-12T16:53:02.805Z,99114.06
2023-04-12T16:55:29.017Z,99101.56
2023-04-12T16:57:55.240Z,99097.97
2023-04-12T17:00:21.479Z,99089.59
2023-04-12T17:02:51.507Z,99071.13
2023-04-12T17:05:17.912Z,99074.53
2023-04-12T17:07:47.101Z,99064.44
2023-04-12T17:10:14.482Z,99061.09
2023-04-12T17:12:40.701Z,99052.00
2023-04-12T17:15:07.091Z,99026.50
2023-04-12T17:17:33.322Z,99027.47
2023-04-12T17:19:59.559Z,99012.13
2023-04-12T17:22:25.855Z,98992.66
2023-04-12T17:24:52.169Z,98989.72
2023-04-12T17:27:18.432Z,98974.63
2023-04-12T17:29:44.788Z,98964.94
2023-04-12T17:32:11.262Z,98960.34
2023-04-12T17:34:37.681Z,98948.13
2023-04-12T17:37:04.122Z,98939.81
2023-04-12T17:39:30.637Z,98940.06
2023-04-12T17:41:56.984Z,98939.53
2023-04-12T17:44:23.626Z,98918.00
2023-04-12T17:46:49.932Z,98919.25
2023-04-12T17:49:16.256Z,98911.44
2023-04-12T17:51:58.686Z,98907.59
2023-04-12T17:54:29.178Z,98888.94
2023-04-12T17:56:55.462Z,98881.13
2023-04-12T17:59:21.926Z,98882.31
2023-04-12T18:01:48.324Z,98880.13
2023-04-12T18:04:14.743Z,98870.03
2023-04-12T18:06:40.992Z,98864.25
2023-04-12T18:09:08.668Z,98871.50
2023-04-12T18:11:34.864Z,98866.44
2023-04-12T18:14:01.116Z,98863.34
2023-04-12T18:16:27.453Z,98865.16
2023-04-12T18:18:53.803Z,98853.53
2023-04-12T18:21:20.089Z,98859.53
2023-04-12T18:23:46.323Z,98865.50
2023-04-12T18:26:12.547Z,98863.97
2023-04-12T18:28:40.747Z,98858.19
2023-04-12T18:31:07.145Z,98847.38
2023-04-12T18:33:33.410Z,98852.94
2023-04-12T18:35:59.628Z,98851.94
2023-04-12T18:38:25.889Z,98837.41
2023-04-12T18:40:52.149Z,98827.53
2023-04-12T18:43:18.481Z,98828.81
2023-04-12T18:45:44.718Z,98828.16
2023-04-12T18:48:11.013Z,98827.41
2023-04-12T18:50:37.292Z,98825.97
2023-04-12T18:53:03.531Z,98809.81
2023-04-12T18:55:29.833Z,98812.19
2023-04-12T18:57:56.083Z,98816.56
2023-04-12T19:00:22.318Z,98810.09
2023-04-12T19:02:48.673Z,98803.06
2023-04-12T19:05:15.008Z,98796.84
2023-04-12T19:07:41.260Z,98783.63
2023-04-12T19:10:07.682Z,98795.72
2023-04-12T19:12:33.912Z,98794.41
2023-04-12T19:15:00.181Z,98784.34
2023-04-12T19:17:26.444Z,98777.13
2023-04-12T19:19:55.810Z,98761.19
2023-04-12T19:22:22.012Z,98752.06
2023-04-12T19:24:48.422Z,98745.91
2023-04-12T19:27:14.675Z,98757.00
2023-04-12T19:29:40.911Z,98745.56
2023-04-12T19:32:07.195Z,98739.63
2023-04-12T19:34:33.525Z,98729.97
2023-04-12T19:36:59.961Z,98716.53
2023-04-12T19:39:26.257Z,98699.81
2023-04-12T19:41:52.754Z,98698.75
2023-04-12T19:44:19.605Z,98690.69
2023-04-12T19:46:45.802Z,98682.69
2023-04-12T19:49:12.032Z,98681.31
2023-04-12T19:51:38.242Z,98658.75
2023-04-12T19:54:04.475Z,98647.34
2023-04-12T19:56:30.754Z,98637.38
2023-04-12T19:58:57.237Z,98628.59
2023-04-12T20:01:23.678Z,98625.75
2023-04-12T20:03:49.934Z,98620.78
2023-04-12T20:06:16.256Z,98620.16
2023-04-12T20:08:42.546Z,98618.81
2023-04-12T20:11:08.739Z,98618.59
2023-04-12T20:13:34.940Z,98611.28
2023-04-12T20:16:01.235Z,98614.34
2023-04-12T20:18:27.465Z,98612.06
2023-04-12T20:20:53.689Z,98603.00
2023-04-12T20:23:19.931Z,98592.69
2023-04-12T20:25:46.157Z,98601.25
2023-04-12T20:28:12.364Z,98595.47
2023-04-12T20:30:38.637Z,98603.22
2023-04-12T20:33:05.034Z,98599.59
2023-04-12T20:35:31.669Z,98603.94
2023-04-12T20:37:57.908Z,98594.63
2023-04-12T20:40:24.145Z,98592.81
2023-04-12T20:42:50.359Z,98591.25
2023-04-12T20:45:16.573Z,98590.44
2023-04-12T20:47:42.786Z,98601.34
2023-04-12T20:50:09.192Z,98603.94
2023-04-12T20:52:35.394Z,98591.00
2023-04-12T20:55:01.641Z,98588.41
2023-04-12T20:57:27.954Z,98582.19
2023-04-12T20:59:54.195Z,98577.47
2023-04-12T21:02:20.542Z,98582.94
2023-04-12T21:04:46.846Z,98574.88
2023-04-12T21:07:13.097Z,98563.19
2023-04-12T21:09:39.312Z,98566.56
2023-04-12T21:12:05.568Z,98562.41
2023-04-12T21:14:31.938Z,98565.00
2023-04-12T21:16:58.157Z,98560.31
2023-04-12T21:19:24.397Z,98556.44
2023-04-12T21:21:50.621Z,98541.41
2023-04-12T21:24:16.841Z,98532.56
2023-04-12T21:26:43.058Z,98532.75
2023-04-12T21:29:09.286Z,98530.53
2023-04-12T21:31:35.580Z,98535.34
2023-04-12T21:34:01.987Z,98531.06
2023-04-12T21:36:28.299Z,98540.97
2023-04-12T21:38:54.795Z,98544.09
2023-04-12T21:41:21.010Z,98537.13
2023-04-12T21:43:47.211Z,98528.56
2023-04-12T21:46:13.470Z,98519.69
2023-04-12T21:48:39.696Z,98515.03
2023-04-12T21:51:06.101Z,98520.47
2023-04-12T21:53:32.306Z,98515.03
2023-04-12T21:55:58.523Z,98508.00
2023-04-12T21:58:24.723Z,98503.56
2023-04-12T22:00:50.971Z,98483.31
2023-04-12T22:03:17.367Z,98469.63
2023-04-12T22:05:48.560Z,98469.91
2023-04-12T22:08:20.344Z,98457.69
2023-04-12T22:10:47.214Z,98445.84
2023-04-12T22:13:13.420Z,98440.72
2023-04-12T22:15:39.627Z,98436.31
2023-04-12T22:18:05.879Z,98426.09
2023-04-12T22:20:32.141Z,98426.84
2023-04-12T22:22:58.349Z,98423.31
2023-04-12T22:25:24.595Z,98403.69
2023-04-12T22:27:50.793Z,98387.78
2023-04-12T22:30:17.005Z,98392.44
2023-04-12T22:32:43.242Z,98377.31
2023-04-12T22:35:09.535Z,98360.41
2023-04-12T22:37:36.113Z,98355.22
2023-04-12T22:40:02.431Z,98336.34
2023-04-12T22:42:28.841Z,98314.97
2023-04-12T22:44:55.426Z,98282.97
2023-04-12T22:47:21.644Z,98272.09
2023-04-12T22:49:47.895Z,98261.19
2023-04-12T22:52:14.095Z,98239.91
2023-04-12T22:54:40.391Z,98244.63
2023-04-12T22:57:06.654Z,98242.59
2023-04-12T22:59:32.898Z,98241.06
2023-04-12T23:01:59.168Z,98241.34
2023-04-12T23:04:25.471Z,98236.41
2023-04-12T23:06:52.486Z,98237.47
2023-04-12T23:09:18.697Z,98234.31
2023-04-12T23:11:44.894Z,98242.88
2023-04-12T23:14:11.096Z,98242.09
2023-04-12T23:16:39.537Z,98239.50
2023-04-12T23:19:05.736Z,98227.06
2023-04-12T23:21:32.216Z,98223.41
2023-04-12T23:23:58.648Z,98215.03
2023-04-12T23:26:25.087Z,98197.91
2023-04-12T23:28:51.283Z,98188.84
2023-04-12T23:31:17.581Z,98181.31
2023-04-12T23:33:44.453Z,98175.66
2023-04-12T23:36:10.923Z,98166.78
2023-04-12T23:38:37.264Z,98154.38
2023-04-12T23:41:03.775Z,98160.69
2023-04-12T23:43:30.172Z,98161.31
2023-04-12T23:45:56.541Z,98157.34
2023-04-12T23:48:22.906Z,98144.81
2023-04-12T23:50:49.250Z,98150.88
2023-04-12T23:53:15.536Z,98141.66
2023-04-12T23:55:41.845Z,98134.31
2023-04-12T23:58:08.144Z,98131.25
